Time;durP1;ratioP1;P1;durP2;ratioP2;P2;SDS_P1;SDS_P2;PMS_P1;PMS_P2;Temp;Humidity;BMP_temperature;BMP_pressure;BME280_temperature;BME280_humidity;BME280_pressure;Samples;Min_cycle;Max_cycle;Signal;HPM_P1;HPM_P2
2022/07/18 00:00:43;;;;;;;69.77;6.33;;;20.80;1.00;;;;;;5071311;28;20187;-80
2022/07/18 00:03:09;;;;;;;68.87;5.90;;;20.80;1.00;;;;;;5071077;28;20175;-80
2022/07/18 00:05:34;;;;;;;69.37;5.60;;;20.70;1.00;;;;;;5071242;28;20259;-80
2022/07/18 00:08:00;;;;;;;66.70;5.30;;;20.70;1.00;;;;;;5069523;28;20266;-80
2022/07/18 00:10:26;;;;;;;69.07;5.80;;;20.70;1.00;;;;;;5068550;28;20239;-81
2022/07/18 00:12:51;;;;;;;70.23;5.40;;;20.60;1.00;;;;;;5070823;28;20196;-80
2022/07/18 00:15:17;;;;;;;67.87;5.07;;;20.60;1.00;;;;;;5070469;28;20189;-80
2022/07/18 00:17:43;;;;;;;67.87;4.80;;;20.60;1.00;;;;;;5070575;28;20185;-80
2022/07/18 00:20:10;;;;;;;67.80;5.00;;;20.60;1.00;;;;;;5071397;28;20171;-80
2022/07/18 00:22:36;;;;;;;67.47;4.60;;;20.60;1.00;;;;;;5069482;28;20620;-80
2022/07/18 00:25:02;;;;;;;67.17;4.80;;;20.60;1.00;;;;;;5070917;28;20443;-80
2022/07/18 00:27:28;;;;;;;68.70;4.50;;;20.50;1.00;;;;;;5070693;28;20184;-80
2022/07/18 00:29:54;;;;;;;68.17;4.80;;;20.50;1.00;;;;;;5070036;28;20569;-80
2022/07/18 00:32:19;;;;;;;67.87;5.57;;;20.50;1.00;;;;;;5068795;28;20166;-80
2022/07/18 00:34:45;;;;;;;72.10;5.30;;;20.40;1.00;;;;;;5068646;28;20173;-80
2022/07/18 00:37:11;;;;;;;71.80;5.80;;;20.40;1.00;;;;;;5068554;28;20543;-80
2022/07/18 00:39:37;;;;;;;71.67;4.43;;;20.40;1.00;;;;;;5069797;28;20165;-79
2022/07/18 00:42:03;;;;;;;67.50;4.37;;;20.30;1.00;;;;;;5069895;28;20171;-80
2022/07/18 00:44:29;;;;;;;68.10;4.37;;;20.40;1.00;;;;;;5068432;28;20164;-81
2022/07/18 00:46:58;;;;;;;67.80;4.70;;;20.30;1.00;;;;;;5067884;28;20403;-79
2022/07/18 00:49:24;;;;;;;69.47;4.93;;;20.30;1.00;;;;;;5069687;28;20463;-79
2022/07/18 00:51:50;;;;;;;68.40;4.77;;;20.20;1.00;;;;;;5068406;28;20399;-80
2022/07/18 00:54:16;;;;;;;68.40;5.23;;;20.20;1.00;;;;;;5069623;28;20512;-80
2022/07/18 00:56:43;;;;;;;70.67;6.20;;;20.20;1.00;;;;;;5068212;28;20170;-80
2022/07/18 00:59:11;;;;;;;68.53;4.97;;;20.10;1.00;;;;;;5069605;28;20422;-80
2022/07/18 01:01:43;;;;;;;66.97;5.80;;;20.10;1.00;;;;;;5069487;28;20403;-80
2022/07/18 01:04:12;;;;;;;68.57;5.57;;;20.10;1.00;;;;;;5069215;28;20384;-80
2022/07/18 01:06:38;;;;;;;67.57;6.00;;;20.00;1.00;;;;;;5068894;28;20406;-80
2022/07/18 01:09:03;;;;;;;70.50;6.43;;;20.00;1.00;;;;;;5069535;28;20829;-80
2022/07/18 01:11:29;;;;;;;67.93;6.57;;;20.00;1.00;;;;;;5067624;28;20399;-80
2022/07/18 01:13:55;;;;;;;68.90;6.30;;;20.00;1.00;;;;;;5067291;28;20212;-79
2022/07/18 01:16:23;;;;;;;68.37;6.67;;;19.90;1.00;;;;;;5066509;28;20417;-80
2022/07/18 01:18:50;;;;;;;67.67;6.80;;;19.90;1.00;;;;;;5067662;28;20193;-80
2022/07/18 01:21:16;;;;;;;71.03;5.97;;;19.90;1.00;;;;;;5068379;28;20402;-80
2022/07/18 01:23:43;;;;;;;67.27;5.90;;;19.90;1.00;;;;;;5067034;28;20490;-80
2022/07/18 01:26:09;;;;;;;68.37;6.27;;;19.90;1.00;;;;;;5069294;28;20410;-80
2022/07/18 01:28:36;;;;;;;69.30;6.20;;;19.80;1.00;;;;;;5049905;28;20492;-80
2022/07/18 01:31:02;;;;;;;68.43;7.70;;;19.90;1.00;;;;;;5069000;28;20421;-80
2022/07/18 01:33:30;;;;;;;72.50;7.97;;;19.80;1.00;;;;;;5067248;28;20441;-80
2022/07/18 01:36:02;;;;;;;68.97;7.40;;;19.80;1.00;;;;;;5069017;28;20408;-81
2022/07/18 01:38:28;;;;;;;71.03;7.27;;;19.80;1.00;;;;;;5067753;28;20448;-80
2022/07/18 01:40:55;;;;;;;68.57;6.80;;;19.80;1.00;;;;;;5068432;28;20418;-80
2022/07/18 01:43:22;;;;;;;71.87;8.03;;;19.80;1.00;;;;;;5067866;28;20441;-82
2022/07/18 01:45:48;;;;;;;68.83;7.80;;;19.70;1.00;;;;;;5069084;28;20402;-82
2022/07/18 01:48:14;;;;;;;69.77;7.83;;;19.70;1.00;;;;;;5066389;28;20483;-81
2022/07/18 01:50:39;;;;;;;68.60;7.97;;;19.60;1.00;;;;;;5068561;28;20410;-81
2022/07/18 01:53:05;;;;;;;68.23;6.97;;;19.60;1.00;;;;;;5066568;28;20165;-81
2022/07/18 01:55:31;;;;;;;68.40;6.83;;;19.60;1.00;;;;;;5067917;28;20222;-82
2022/07/18 01:57:56;;;;;;;73.40;9.00;;;19.50;1.00;;;;;;5065379;28;20194;-81
2022/07/18 02:00:22;;;;;;;69.20;6.97;;;19.50;1.00;;;;;;5066172;28;20192;-81
2022/07/18 02:02:48;;;;;;;68.50;7.13;;;19.50;1.00;;;;;;5067619;28;20527;-82
2022/07/18 02:05:14;;;;;;;69.57;8.87;;;19.50;1.00;;;;;;5067101;28;20663;-82
2022/07/18 02:07:41;;;;;;;69.20;7.27;;;19.40;1.00;;;;;;5064918;28;20460;-81
2022/07/18 02:10:12;;;;;;;70.97;8.37;;;19.40;1.30;;;;;;5066185;28;20425;-82
2022/07/18 02:12:38;;;;;;;67.97;7.20;;;19.40;1.70;;;;;;5066377;28;20395;-82
2022/07/18 02:15:05;;;;;;;69.50;8.50;;;19.40;2.60;;;;;;5066660;28;20463;-82
2022/07/18 02:17:33;;;;;;;68.43;7.37;;;19.40;3.00;;;;;;5066416;28;20429;-81
2022/07/18 02:19:59;;;;;;;68.30;7.80;;;19.30;3.80;;;;;;5066375;28;20432;-82
2022/07/18 02:22:24;;;;;;;73.27;7.30;;;19.30;4.90;;;;;;5064903;28;20485;-81
2022/07/18 02:24:51;;;;;;;71.93;7.77;;;19.30;5.40;;;;;;5064861;28;20409;-81
2022/07/18 02:27:18;;;;;;;69.67;7.80;;;19.30;6.00;;;;;;5067849;28;20251;-82
2022/07/18 02:29:43;;;;;;;67.87;7.20;;;19.20;6.20;;;;;;5065689;28;20441;-81
2022/07/18 02:32:09;;;;;;;67.47;7.50;;;19.20;6.20;;;;;;5065833;28;20485;-81
2022/07/18 02:34:35;;;;;;;67.67;6.20;;;19.20;7.20;;;;;;5066327;28;20159;-81
2022/07/18 02:37:01;;;;;;;68.97;6.90;;;19.20;8.80;;;;;;5067033;28;20906;-81
2022/07/18 02:39:28;;;;;;;67.77;7.47;;;19.20;9.30;;;;;;5142528;22;20899;-82
2022/07/18 02:41:53;;;;;;;68.20;6.70;;;19.20;9.40;;;;;;5075940;28;20174;-82
2022/07/18 02:44:19;;;;;;;68.83;5.93;;;19.10;9.10;;;;;;5077316;28;20949;-82
2022/07/18 02:46:45;;;;;;;67.40;6.00;;;19.10;9.60;;;;;;5077264;28;20186;-83
2022/07/18 02:49:26;;;;;;;68.87;6.07;;;19.10;10.30;;;;;;5076838;28;20224;-83
2022/07/18 02:51:56;;;;;;;70.53;6.40;;;19.10;10.80;;;;;;5077662;28;20151;-82
2022/07/18 02:54:23;;;;;;;67.27;5.40;;;19.00;11.80;;;;;;5075927;28;20412;-82
2022/07/18 02:56:49;;;;;;;68.57;6.17;;;19.00;11.80;;;;;;5077742;28;20396;-82
2022/07/18 02:59:14;;;;;;;71.03;6.13;;;19.00;12.30;;;;;;5078112;28;20431;-83
2022/07/18 03:01:40;;;;;;;70.70;5.60;;;19.00;12.30;;;;;;5075523;28;20201;-83
2022/07/18 03:04:06;;;;;;;68.60;4.90;;;19.00;12.20;;;;;;5076971;28;20166;-82
2022/07/18 03:06:32;;;;;;;66.70;4.57;;;18.90;13.00;;;;;;5076707;28;20845;-82
2022/07/18 03:08:57;;;;;;;67.50;5.17;;;18.90;13.80;;;;;;5074678;28;20204;-82
2022/07/18 03:11:23;;;;;;;68.57;5.00;;;18.90;14.60;;;;;;5076467;28;20217;-82
2022/07/18 03:13:49;;;;;;;69.27;4.37;;;18.90;15.20;;;;;;5075779;28;20164;-82
2022/07/18 03:16:14;;;;;;;71.50;4.90;;;18.80;16.20;;;;;;5075951;28;20160;-83
2022/07/18 03:18:40;;;;;;;67.90;6.03;;;18.80;15.70;;;;;;5079521;28;20675;-83
2022/07/18 03:21:06;;;;;;;68.60;5.57;;;18.80;16.10;;;;;;5079534;28;20580;-83
2022/07/18 03:23:31;;;;;;;67.20;5.30;;;18.80;16.90;;;;;;5079914;28;20175;-83
2022/07/18 03:25:57;;;;;;;68.73;5.33;;;18.80;16.60;;;;;;5079070;28;20244;-83
2022/07/18 03:28:23;;;;;;;69.00;5.00;;;18.80;16.50;;;;;;5079184;28;20242;-83
2022/07/18 03:30:48;;;;;;;68.33;5.10;;;18.80;16.70;;;;;;5079037;28;20164;-83
2022/07/18 03:33:14;;;;;;;70.00;4.53;;;18.70;17.20;;;;;;5079213;28;20158;-83
2022/07/18 03:35:40;;;;;;;69.50;4.67;;;18.80;17.20;;;;;;5078988;28;20592;-83
2022/07/18 03:38:05;;;;;;;66.80;4.90;;;18.70;17.50;;;;;;5079367;28;20263;-83
2022/07/18 03:40:31;;;;;;;68.40;5.13;;;18.70;18.60;;;;;;5079047;28;20183;-83
2022/07/18 03:42:57;;;;;;;67.97;4.60;;;18.70;18.60;;;;;;5077999;28;20303;-83
2022/07/18 03:45:23;;;;;;;72.47;4.87;;;18.60;18.90;;;;;;5077616;28;20536;-83
2022/07/18 03:47:49;;;;;;;67.97;4.50;;;18.60;19.30;;;;;;5078579;28;20214;-83
2022/07/18 03:50:14;;;;;;;68.00;4.73;;;18.60;19.30;;;;;;5079201;28;20238;-83
2022/07/18 03:52:40;;;;;;;68.43;4.97;;;18.60;20.30;;;;;;5079270;28;20161;-83
2022/07/18 03:55:07;;;;;;;68.17;5.43;;;18.60;19.80;;;;;;5079238;28;20554;-83
2022/07/18 03:57:33;;;;;;;69.17;5.13;;;18.60;19.80;;;;;;5078651;28;20550;-83
2022/07/18 03:59:59;;;;;;;66.90;4.60;;;18.50;19.60;;;;;;5079281;28;20402;-83
2022/07/18 04:02:24;;;;;;;67.40;4.73;;;18.50;20.10;;;;;;5078558;28;20399;-82
2022/07/18 04:04:50;;;;;;;68.20;5.60;;;18.30;21.10;;;;;;5076413;28;20176;-83
2022/07/18 04:07:16;;;;;;;67.00;4.77;;;18.30;22.20;;;;;;5075322;28;20546;-82
2022/07/18 04:09:41;;;;;;;68.10;5.00;;;18.30;21.80;;;;;;5074093;28;20734;-82
2022/07/18 04:12:07;;;;;;;70.53;4.90;;;18.20;20.70;;;;;;5075762;28;20169;-83
2022/07/18 04:14:33;;;;;;;67.07;4.50;;;18.20;21.00;;;;;;5074760;28;20545;-82
2022/07/18 04:16:58;;;;;;;67.20;5.17;;;18.30;20.00;;;;;;5075920;28;20179;-83
2022/07/18 04:19:25;;;;;;;67.70;4.77;;;18.50;18.90;;;;;;5075644;28;20172;-83
2022/07/18 04:21:50;;;;;;;68.70;5.00;;;18.50;16.90;;;;;;5075437;28;20247;-82
2022/07/18 04:24:16;;;;;;;66.90;4.40;;;18.60;16.50;;;;;;5073917;28;20822;-83
2022/07/18 04:26:42;;;;;;;71.83;4.50;;;18.60;15.80;;;;;;5074369;28;20172;-82
2022/07/18 04:29:07;;;;;;;68.13;4.73;;;18.70;15.30;;;;;;5077974;28;20200;-82
2022/07/18 04:31:33;;;;;;;69.80;4.87;;;18.70;14.70;;;;;;5079449;28;20188;-82
2022/07/18 04:33:59;;;;;;;71.13;4.80;;;18.60;14.90;;;;;;5079175;28;20156;-82
2022/07/18 04:36:25;;;;;;;67.60;4.20;;;18.70;14.20;;;;;;5079475;28;20400;-82
2022/07/18 04:38:54;;;;;;;67.10;4.57;;;18.60;14.00;;;;;;5077673;28;20256;-83
2022/07/18 04:41:24;;;;;;;67.57;4.27;;;18.60;14.80;;;;;;5079630;28;20459;-82
2022/07/18 04:43:51;;;;;;;67.47;4.43;;;18.60;15.10;;;;;;5080025;28;20393;-83
2022/07/18 04:46:18;;;;;;;67.70;4.20;;;18.70;14.70;;;;;;5079614;28;20429;-83
2022/07/18 04:48:44;;;;;;;68.80;5.00;;;18.70;15.60;;;;;;5079625;28;20456;-83
2022/07/18 04:51:12;;;;;;;68.10;4.90;;;18.90;17.90;;;;;;5082529;28;20169;-83
2022/07/18 04:53:38;;;;;;;72.60;5.10;;;19.30;17.30;;;;;;5080788;28;20172;-83
2022/07/18 04:56:04;;;;;;;68.40;5.90;;;19.70;13.40;;;;;;5081228;28;20422;-83
2022/07/18 04:58:30;;;;;;;68.37;5.47;;;19.80;10.00;;;;;;5081934;28;20433;-83
2022/07/18 05:00:55;;;;;;;68.90;5.80;;;20.10;6.60;;;;;;5082011;28;20897;-83
2022/07/18 05:03:21;;;;;;;70.20;5.53;;;20.40;4.00;;;;;;5081274;28;20183;-83
2022/07/18 05:05:47;;;;;;;68.00;5.00;;;20.50;1.00;;;;;;5081641;28;20164;-83
2022/07/18 05:08:13;;;;;;;71.20;5.10;;;20.50;1.00;;;;;;5081153;28;20231;-83
2022/07/18 05:10:40;;;;;;;68.00;4.63;;;20.50;1.00;;;;;;5080660;28;20178;-83
2022/07/18 05:13:05;;;;;;;67.77;5.43;;;20.30;1.00;;;;;;5081522;28;20406;-83
2022/07/18 05:15:31;;;;;;;70.87;6.03;;;20.20;1.00;;;;;;5080237;28;20433;-83
2022/07/18 05:17:57;;;;;;;69.67;5.27;;;20.10;1.00;;;;;;5081700;28;20655;-83
2022/07/18 05:20:25;;;;;;;69.17;5.20;;;20.00;1.00;;;;;;5081681;28;20400;-83
2022/07/18 05:22:51;;;;;;;68.87;5.07;;;19.90;2.80;;;;;;5081665;28;20165;-83
2022/07/18 05:25:18;;;;;;;67.80;4.70;;;20.00;4.50;;;;;;5081442;28;20409;-83
2022/07/18 05:27:43;;;;;;;70.07;5.30;;;19.80;8.30;;;;;;5080638;28;20950;-83
2022/07/18 05:30:11;;;;;;;68.30;4.90;;;19.70;9.70;;;;;;5081883;28;20467;-83
2022/07/18 05:32:38;;;;;;;67.87;4.70;;;19.70;11.80;;;;;;5081420;28;20172;-83
2022/07/18 05:35:06;;;;;;;69.20;4.43;;;19.60;11.80;;;;;;5082533;28;20889;-83
2022/07/18 05:37:31;;;;;;;69.50;5.40;;;19.70;12.50;;;;;;5081013;28;20543;-83
2022/07/18 05:39:57;;;;;;;68.93;4.47;;;19.70;12.10;;;;;;5080460;28;20542;-83
2022/07/18 05:42:23;;;;;;;69.63;3.97;;;19.70;13.20;;;;;;5081166;28;20430;-83
2022/07/18 05:44:48;;;;;;;69.97;4.80;;;19.70;11.30;;;;;;5079940;28;20545;-84
2022/07/18 05:47:14;;;;;;;69.30;4.60;;;19.70;12.50;;;;;;5081800;28;20219;-83
2022/07/18 05:49:40;;;;;;;67.77;4.07;;;19.50;15.00;;;;;;5079631;28;20188;-82
2022/07/18 05:52:09;;;;;;;70.10;4.53;;;19.50;16.40;;;;;;5080165;28;20171;-83
2022/07/18 05:54:38;;;;;;;68.47;4.47;;;19.50;15.60;;;;;;5080372;28;20405;-83
2022/07/18 05:57:03;;;;;;;66.13;3.80;;;19.50;14.70;;;;;;5081012;28;20436;-83
2022/07/18 05:59:29;;;;;;;65.97;4.00;;;19.60;12.90;;;;;;5079924;28;20418;-83
2022/07/18 06:01:55;;;;;;;67.67;4.13;;;19.60;13.30;;;;;;5080648;28;20758;-83
2022/07/18 06:04:21;;;;;;;66.60;4.40;;;19.60;12.10;;;;;;5080935;28;20193;-83
2022/07/18 06:06:49;;;;;;;71.40;5.30;;;19.60;11.40;;;;;;5080849;28;20173;-83
2022/07/18 06:09:16;;;;;;;72.73;4.67;;;19.60;11.00;;;;;;5079291;28;20263;-83
2022/07/18 06:11:42;;;;;;;67.40;4.30;;;19.70;7.70;;;;;;5080419;28;20438;-83
2022/07/18 06:14:08;;;;;;;67.30;4.57;;;19.70;6.90;;;;;;5081949;28;20378;-84
2022/07/18 06:16:34;;;;;;;66.73;4.40;;;19.80;6.30;;;;;;5080334;28;20558;-83
2022/07/18 06:19:00;;;;;;;67.90;4.97;;;19.90;4.70;;;;;;5079664;28;20671;-84
2022/07/18 06:21:26;;;;;;;68.90;5.27;;;19.90;2.70;;;;;;5078560;28;20402;-83
2022/07/18 06:23:52;;;;;;;67.40;4.43;;;20.00;1.00;;;;;;5080522;28;20172;-85
2022/07/18 06:26:18;;;;;;;67.80;5.50;;;20.10;1.00;;;;;;5081176;28;20415;-85
2022/07/18 06:28:43;;;;;;;66.50;5.10;;;20.10;1.00;;;;;;5080086;28;20196;-85
2022/07/18 06:31:11;;;;;;;70.50;5.50;;;20.10;1.00;;;;;;5080399;28;20656;-84
2022/07/18 06:33:37;;;;;;;69.53;4.63;;;20.20;1.00;;;;;;5080576;28;20171;-84
2022/07/18 06:36:05;;;;;;;69.90;4.97;;;20.30;1.00;;;;;;5080424;28;20391;-85
2022/07/18 06:38:31;;;;;;;66.17;4.23;;;20.30;1.00;;;;;;5080259;28;20500;-85
2022/07/18 06:40:57;;;;;;;69.10;4.90;;;20.30;1.00;;;;;;5079262;28;20465;-86
2022/07/18 06:43:22;;;;;;;69.00;4.90;;;20.40;1.00;;;;;;5080544;28;20199;-85
2022/07/18 06:45:50;;;;;;;72.43;5.00;;;20.40;1.00;;;;;;5080591;28;20159;-84
2022/07/18 06:48:16;;;;;;;67.80;4.93;;;20.50;1.00;;;;;;5078194;28;20263;-84
2022/07/18 06:50:42;;;;;;;69.80;4.17;;;20.60;1.00;;;;;;5079060;28;20407;-84
2022/07/18 06:53:08;;;;;;;69.70;5.40;;;20.70;1.00;;;;;;5080819;28;20955;-85
2022/07/18 06:55:33;;;;;;;66.57;4.47;;;20.70;1.00;;;;;;5079600;28;20412;-85
2022/07/18 06:57:59;;;;;;;69.87;4.70;;;20.80;1.00;;;;;;5079478;28;20467;-85
2022/07/18 07:00:26;;;;;;;68.97;4.83;;;20.90;1.00;;;;;;5081516;28;20503;-86
2022/07/18 07:02:52;;;;;;;71.33;4.07;;;21.00;1.00;;;;;;5080068;28;20223;-85
2022/07/18 07:05:20;;;;;;;68.17;4.23;;;21.20;1.00;;;;;;5081252;28;20401;-85
2022/07/18 07:07:46;;;;;;;70.47;3.90;;;21.20;1.00;;;;;;5079594;28;20515;-85
2022/07/18 07:10:13;;;;;;;67.97;3.57;;;21.30;1.00;;;;;;5080314;28;20454;-85
2022/07/18 07:12:43;;;;;;;66.77;3.37;;;21.30;1.00;;;;;;5077681;28;20425;-84
2022/07/18 07:15:10;;;;;;;66.87;3.53;;;21.40;1.00;;;;;;5076900;28;20413;-85
2022/07/18 07:17:38;;;;;;;66.40;3.00;;;21.40;1.00;;;;;;5077755;28;20800;-84
2022/07/18 07:20:05;;;;;;;66.77;3.13;;;21.40;1.00;;;;;;5077699;28;20396;-84
2022/07/18 07:22:32;;;;;;;66.60;3.13;;;21.50;1.00;;;;;;5075625;28;20955;-85
2022/07/18 07:24:58;;;;;;;66.83;2.73;;;21.50;1.00;;;;;;5076399;28;20909;-83
2022/07/18 07:27:24;;;;;;;67.30;3.20;;;21.50;1.00;;;;;;5077483;28;20420;-84
2022/07/18 07:29:50;;;;;;;71.10;3.90;;;21.60;1.00;;;;;;5076981;28;20448;-84
2022/07/18 07:32:15;;;;;;;66.90;3.27;;;21.70;1.00;;;;;;5078711;28;20162;-84
2022/07/18 07:34:41;;;;;;;67.17;2.70;;;21.80;1.00;;;;;;5075476;28;20411;-84
2022/07/18 07:37:07;;;;;;;68.00;3.50;;;21.90;1.00;;;;;;5075644;28;20247;-84
2022/07/18 07:39:32;;;;;;;66.67;3.90;;;22.00;1.00;;;;;;5075450;28;20209;-83
2022/07/18 07:41:58;;;;;;;70.13;3.30;;;22.10;1.00;;;;;;5075362;28;20179;-84
2022/07/18 07:44:24;;;;;;;69.33;3.17;;;22.20;1.00;;;;;;5077683;28;20231;-85
2022/07/18 07:46:50;;;;;;;76.13;3.63;;;22.20;1.00;;;;;;5076038;28;20247;-85
2022/07/18 07:49:16;;;;;;;67.57;3.50;;;22.30;1.00;;;;;;5077352;28;20686;-84
2022/07/18 07:51:42;;;;;;;67.67;4.27;;;22.40;1.00;;;;;;5077764;28;20430;-85
2022/07/18 07:54:07;;;;;;;69.07;4.00;;;22.50;1.00;;;;;;5077517;28;20170;-84
2022/07/18 07:56:36;;;;;;;69.53;4.80;;;22.60;1.00;;;;;;5078706;28;20141;-85
2022/07/18 07:59:01;;;;;;;70.20;4.73;;;22.70;1.00;;;;;;5080198;28;20180;-85
2022/07/18 08:01:27;;;;;;;67.87;5.00;;;22.70;1.00;;;;;;5080398;28;20393;-85
2022/07/18 08:03:53;;;;;;;68.20;5.67;;;22.80;1.00;;;;;;5083784;28;20161;-86
2022/07/18 08:06:19;;;;;;;70.80;7.63;;;22.90;1.00;;;;;;5083081;28;20213;-85
2022/07/18 08:08:44;;;;;;;70.50;8.90;;;23.00;1.00;;;;;;5083675;28;20446;-85
2022/07/18 08:11:10;;;;;;;71.10;11.57;;;23.10;1.00;;;;;;5084092;28;20160;-86
2022/07/18 08:13:36;;;;;;;67.87;9.67;;;23.10;1.00;;;;;;5082208;28;20171;-85
2022/07/18 08:16:01;;;;;;;68.70;9.23;;;23.20;1.00;;;;;;5083536;28;20168;-85
2022/07/18 08:18:27;;;;;;;71.03;11.67;;;23.30;1.00;;;;;;5082421;28;20187;-85
2022/07/18 08:20:53;;;;;;;70.00;10.13;;;23.30;1.00;;;;;;5083679;28;20164;-85
2022/07/18 08:23:18;;;;;;;69.27;11.37;;;23.40;1.00;;;;;;5083402;28;20175;-85
2022/07/18 08:25:45;;;;;;;71.50;13.63;;;23.60;1.00;;;;;;5082800;28;20168;-85
2022/07/18 08:28:12;;;;;;;71.83;13.33;;;23.70;1.00;;;;;;5082870;28;20203;-84
2022/07/18 08:30:38;;;;;;;72.87;13.70;;;23.90;1.00;;;;;;5081637;28;20410;-85
2022/07/18 08:33:05;;;;;;;71.33;13.57;;;23.90;1.00;;;;;;5081361;28;20422;-85
2022/07/18 08:35:31;;;;;;;73.90;13.50;;;23.90;1.00;;;;;;5082259;28;20410;-86
2022/07/18 08:37:59;;;;;;;69.20;9.53;;;24.20;1.00;;;;;;5083509;28;20436;-85
2022/07/18 08:40:24;;;;;;;68.77;10.77;;;24.20;1.00;;;;;;5151036;22;20479;-82
2022/07/18 08:42:52;;;;;;;70.53;12.37;;;24.40;1.00;;;;;;5049387;28;20408;-82
2022/07/18 08:45:23;;;;;;;67.70;7.40;;;24.50;1.00;;;;;;5048308;28;20212;-82
2022/07/18 08:47:49;;;;;;;70.03;9.03;;;24.60;1.00;;;;;;5049912;28;20416;-82
2022/07/18 08:50:15;;;;;;;67.37;4.13;;;24.60;1.00;;;;;;5049709;28;20490;-82
2022/07/18 08:52:42;;;;;;;69.20;4.50;;;24.80;1.00;;;;;;5049648;28;20503;-82
2022/07/18 08:55:08;;;;;;;66.17;3.30;;;24.90;1.00;;;;;;5044452;28;20398;-82
2022/07/18 08:57:34;;;;;;;69.80;4.90;;;25.00;1.00;;;;;;5049763;28;20419;-82
2022/07/18 09:00:01;;;;;;;69.70;3.60;;;25.10;1.00;;;;;;5050222;28;20400;-81
2022/07/18 09:02:27;;;;;;;72.40;4.10;;;25.30;1.00;;;;;;5050889;28;20153;-82
2022/07/18 09:04:53;;;;;;;66.43;2.50;;;25.30;1.00;;;;;;5050619;28;20400;-82
2022/07/18 09:07:27;;;;;;;66.00;2.67;;;25.40;1.00;;;;;;5049134;28;20428;-81
2022/07/18 09:09:57;;;;;;;67.77;2.50;;;25.50;1.00;;;;;;5049565;28;20443;-82
2022/07/18 09:12:24;;;;;;;73.20;4.20;;;25.60;1.00;;;;;;5050314;28;20410;-82
2022/07/18 09:14:49;;;;;;;76.37;2.70;;;25.70;1.00;;;;;;5046997;28;20413;-82
2022/07/18 09:17:25;;;;;;;69.10;2.90;;;25.80;1.00;;;;;;5049940;28;20496;-82
2022/07/18 09:20:14;;;;;;;69.40;2.90;;;25.90;1.00;;;;;;5049601;28;20163;-82
2022/07/18 09:22:45;;;;;;;67.47;2.60;;;25.90;1.00;;;;;;5049809;28;20489;-82
2022/07/18 09:25:24;;;;;;;69.30;2.63;;;26.10;1.00;;;;;;5047709;28;20414;-82
2022/07/18 09:27:53;;;;;;;66.20;2.73;;;26.40;1.00;;;;;;5048833;28;20553;-83
2022/07/18 09:30:23;;;;;;;73.20;2.63;;;26.40;1.00;;;;;;5048561;28;20415;-82
2022/07/18 09:32:53;;;;;;;66.30;2.77;;;26.50;1.00;;;;;;5049054;28;20391;-82
2022/07/18 09:35:26;;;;;;;67.00;3.17;;;26.50;1.00;;;;;;5048400;28;20403;-82
2022/07/18 09:38:05;;;;;;;69.33;3.33;;;26.50;1.00;;;;;;5048595;28;20491;-82
2022/07/18 09:40:32;;;;;;;69.77;3.40;;;26.60;1.00;;;;;;5063717;28;20414;-82
2022/07/18 09:43:01;;;;;;;67.10;3.10;;;26.70;1.00;;;;;;5068108;28;20799;-82
2022/07/18 09:45:48;;;;;;;68.80;3.13;;;26.80;1.00;;;;;;5068980;28;20735;-82
2022/07/18 09:48:19;;;;;;;66.90;2.97;;;26.90;1.00;;;;;;5068734;28;20950;-82
2022/07/18 09:50:54;;;;;;;67.50;2.50;;;27.20;1.00;;;;;;5069393;28;20388;-82
2022/07/18 09:53:26;;;;;;;74.20;3.30;;;27.30;1.00;;;;;;5067870;28;20403;-82
2022/07/18 09:55:57;;;;;;;72.80;2.33;;;27.50;1.00;;;;;;5068830;28;20384;-82
2022/07/18 09:58:31;;;;;;;68.23;2.70;;;27.60;1.00;;;;;;5069061;28;20481;-82
2022/07/18 10:00:58;;;;;;;66.27;2.17;;;27.60;1.00;;;;;;5069611;28;20457;-82
2022/07/18 10:03:25;;;;;;;66.37;2.07;;;27.80;1.00;;;;;;5068763;28;20399;-82
2022/07/18 10:05:52;;;;;;;66.27;3.00;;;28.00;1.00;;;;;;5068176;28;20490;-82
2022/07/18 10:08:20;;;;;;;70.63;2.80;;;28.10;1.00;;;;;;5068164;28;20439;-82
2022/07/18 10:10:48;;;;;;;67.50;2.83;;;28.20;1.00;;;;;;5068622;28;20460;-82
2022/07/18 10:13:15;;;;;;;67.00;2.37;;;28.40;1.00;;;;;;5069304;28;20399;-82
2022/07/18 10:15:44;;;;;;;67.20;3.10;;;28.60;1.00;;;;;;5069244;28;20400;-82
2022/07/18 10:18:13;;;;;;;66.60;3.43;;;28.80;1.00;;;;;;5068749;28;20509;-82
2022/07/18 10:20:44;;;;;;;67.17;3.10;;;28.90;1.00;;;;;;5068191;28;20399;-82
2022/07/18 10:23:19;;;;;;;66.47;2.90;;;29.30;1.00;;;;;;5067806;28;20384;-82
2022/07/18 10:26:06;;;;;;;67.07;2.83;;;29.30;1.00;;;;;;5068033;28;20387;-82
2022/07/18 10:28:33;;;;;;;67.37;2.60;;;29.40;1.00;;;;;;5067973;28;20471;-82
2022/07/18 10:31:16;;;;;;;66.40;2.60;;;29.50;1.00;;;;;;5068419;28;20407;-82
2022/07/18 10:33:45;;;;;;;67.93;2.33;;;29.70;1.00;;;;;;5068260;28;20375;-83
2022/07/18 10:36:22;;;;;;;67.50;2.50;;;29.90;1.00;;;;;;5067436;28;20428;-82
2022/07/18 10:39:12;;;;;;;73.23;3.50;;;30.10;1.00;;;;;;5061392;28;20787;-81
2022/07/18 10:41:41;;;;;;;67.90;2.50;;;30.30;1.00;;;;;;5061660;28;20407;-82
2022/07/18 10:44:25;;;;;;;67.80;2.87;;;30.50;1.00;;;;;;5063009;28;20468;-82
2022/07/18 10:47:03;;;;;;;67.47;2.73;;;30.60;1.00;;;;;;5064342;28;20399;-81
2022/07/18 10:49:52;;;;;;;68.17;3.30;;;30.80;1.00;;;;;;5064085;28;20470;-81
2022/07/18 10:52:32;;;;;;;67.13;2.00;;;31.10;1.00;;;;;;5061445;28;20399;-82
2022/07/18 10:55:06;;;;;;;66.80;2.47;;;31.10;1.00;;;;;;5062161;28;20395;-82
2022/07/18 10:57:40;;;;;;;68.33;4.07;;;31.20;1.00;;;;;;5061256;28;20422;-81
2022/07/18 11:00:15;;;;;;;71.17;2.20;;;31.50;1.00;;;;;;5059460;28;20399;-82
2022/07/18 11:02:44;;;;;;;67.17;2.10;;;31.60;1.00;;;;;;5062236;28;20391;-82
2022/07/18 11:05:25;;;;;;;68.27;2.60;;;31.70;1.00;;;;;;5063919;28;20430;-81
2022/07/18 11:07:57;;;;;;;66.90;1.90;;;31.80;1.00;;;;;;5062917;28;20438;-81
2022/07/18 11:10:45;;;;;;;67.80;3.93;;;32.10;1.00;;;;;;5062287;28;20419;-82
2022/07/18 11:13:37;;;;;;;71.57;8.73;;;32.20;1.00;;;;;;5061973;28;20490;-82
2022/07/18 11:16:09;;;;;;;69.10;6.80;;;32.00;1.00;;;;;;5060865;28;20415;-83
2022/07/18 11:18:43;;;;;;;71.17;9.97;;;32.10;1.00;;;;;;5063764;28;20938;-82
2022/07/18 11:21:23;;;;;;;69.67;6.87;;;32.30;1.00;;;;;;5063038;28;20406;-81
2022/07/18 11:24:11;;;;;;;70.67;4.00;;;32.30;1.00;;;;;;5062887;28;20755;-82
2022/07/18 11:26:44;;;;;;;69.47;6.70;;;32.40;1.00;;;;;;5065158;28;20407;-82
2022/07/18 11:29:14;;;;;;;67.37;3.23;;;32.60;1.00;;;;;;5062986;28;20465;-81
2022/07/18 11:31:47;;;;;;;67.57;2.93;;;32.60;1.00;;;;;;5064025;28;20435;-82
2022/07/18 11:34:13;;;;;;;69.60;2.57;;;32.50;1.00;;;;;;5058889;28;20497;-82
2022/07/18 11:36:42;;;;;;;68.73;5.17;;;32.00;1.00;;;;;;5057173;28;20941;-82
2022/07/18 11:39:09;;;;;;;70.57;3.53;;;32.10;1.00;;;;;;5058644;28;20446;-82
2022/07/18 11:41:40;;;;;;;72.00;7.17;;;32.40;1.00;;;;;;5058361;28;20391;-82
2022/07/18 11:44:16;;;;;;;68.10;3.07;;;32.50;1.00;;;;;;5060852;28;20569;-82
2022/07/18 11:46:42;;;;;;;67.90;2.90;;;32.50;1.00;;;;;;5061519;28;20379;-82
2022/07/18 11:49:08;;;;;;;68.50;6.07;;;32.90;1.00;;;;;;5059532;28;20453;-82
2022/07/18 11:51:35;;;;;;;68.67;6.23;;;33.10;1.00;;;;;;5061117;28;20161;-82
2022/07/18 11:54:02;;;;;;;67.10;2.63;;;33.20;1.00;;;;;;5060991;28;20214;-82
2022/07/18 11:56:28;;;;;;;67.80;2.07;;;33.30;1.00;;;;;;5063763;28;20395;-82
2022/07/18 11:58:53;;;;;;;68.30;2.10;;;33.50;1.00;;;;;;5064207;28;20522;-82
2022/07/18 12:01:20;;;;;;;68.87;2.10;;;33.60;1.00;;;;;;5064983;28;20160;-82
2022/07/18 12:03:48;;;;;;;69.30;3.03;;;33.50;1.00;;;;;;5063295;28;20169;-82
2022/07/18 12:06:15;;;;;;;68.90;2.40;;;33.40;1.00;;;;;;5063150;28;20404;-82
2022/07/18 12:08:45;;;;;;;68.00;1.83;;;33.50;1.00;;;;;;5063176;28;20439;-82
2022/07/18 12:11:34;;;;;;;68.70;2.03;;;33.80;1.00;;;;;;5063618;28;20387;-82
2022/07/18 12:14:02;;;;;;;67.57;1.87;;;33.50;1.00;;;;;;5062976;28;20406;-82
2022/07/18 12:16:42;;;;;;;70.10;2.43;;;33.80;1.00;;;;;;5065664;28;20439;-82
2022/07/18 12:19:13;;;;;;;68.70;2.40;;;33.80;1.00;;;;;;5065451;28;20423;-82
2022/07/18 12:21:46;;;;;;;68.20;2.20;;;33.60;1.00;;;;;;5065626;28;20388;-82
2022/07/18 12:24:33;;;;;;;67.57;2.10;;;33.70;1.00;;;;;;5063890;28;20459;-82
2022/07/18 12:27:29;;;;;;;67.23;1.90;;;33.90;1.00;;;;;;5065097;28;20433;-82
2022/07/18 12:30:08;;;;;;;69.00;2.20;;;34.10;1.00;;;;;;5064862;28;20447;-82
2022/07/18 12:32:57;;;;;;;70.00;1.93;;;34.30;1.00;;;;;;5064873;28;20383;-82
2022/07/18 12:35:32;;;;;;;72.60;3.83;;;34.50;1.00;;;;;;5063317;28;20399;-82
2022/07/18 12:38:06;;;;;;;69.40;2.43;;;34.60;1.00;;;;;;5065546;28;20486;-82
2022/07/18 12:40:47;;;;;;;68.70;2.40;;;34.70;1.00;;;;;;5066771;28;20867;-82
2022/07/18 12:43:14;;;;;;;68.13;2.10;;;34.80;1.00;;;;;;5064292;28;20426;-82
2022/07/18 12:45:41;;;;;;;67.80;2.00;;;34.90;1.00;;;;;;5063970;28;20430;-82
2022/07/18 12:48:09;;;;;;;68.83;2.10;;;34.90;1.00;;;;;;5065430;28;20414;-82